< < Back
Terminal Aerodrome Forecast


Current Version              Previous Versions:   1  2  3  4  5  6  7  8  9  

Terminal Aerodrome Forecast

939
FTUS42 KGSP 241100
TAFAND
TAF
KAND 241122Z 2412/2512 25003KT P6SM BKN250
     FM241400 24009KT P6SM SCT040 BKN250
     FM242000 24012KT P6SM BKN060
      TEMPO 2420/2423 VRB10G15KT 4SM TSRA BKN040CB
     FM250400 24006KT P6SM SCT250
     FM251000 30003KT P6SM SCT250=



Latest METAR

539
SAUS70 KWBC 250000 RRL
MTRAND
METAR KAND 242356Z AUTO 23009KT 10SM FEW095 28/22 A2991 RMK AO2 SLP119
60000 T02780222 10322 20278 51006


USA.gov is the U.S. government's official web portal to all federal, state and local government web resources and services.